createdAt,value
2022-10-03T17:56:33.016Z,11.90
2022-10-03T17:59:07.201Z,11.80
2022-10-03T18:01:42.957Z,11.90
2022-10-03T18:04:17.887Z,11.90
2022-10-03T18:06:49.585Z,11.90
2022-10-03T18:09:19.952Z,12.00
2022-10-03T18:11:47.523Z,12.00
2022-10-03T18:14:29.517Z,12.00
2022-10-03T18:17:10.557Z,12.00
2022-10-03T18:19:37.339Z,12.00
2022-10-03T18:22:18.930Z,11.90
2022-10-03T18:24:55.007Z,12.00
2022-10-03T18:27:51.414Z,12.00
2022-10-03T18:30:22.455Z,12.00
2022-10-03T18:32:49.254Z,12.00
2022-10-03T18:35:22.244Z,12.00
2022-10-03T18:38:28.676Z,12.00
2022-10-03T18:40:56.620Z,12.00
2022-10-03T18:43:34.914Z,12.00
2022-10-03T18:46:15.201Z,12.00
2022-10-03T18:49:03.054Z,12.00
2022-10-03T18:51:44.470Z,12.00
2022-10-03T18:54:35.326Z,12.00
2022-10-03T18:57:05.174Z,12.00
2022-10-03T19:00:09.563Z,12.00
2022-10-03T19:02:56.016Z,12.00
2022-10-03T19:05:30.207Z,12.00
2022-10-03T19:08:12.025Z,12.10
2022-10-03T19:10:46.161Z,12.10
2022-10-03T19:13:24.821Z,12.20
2022-10-03T19:16:13.767Z,12.20
2022-10-03T19:18:46.629Z,12.20
2022-10-03T19:21:21.806Z,12.20
2022-10-03T19:24:02.453Z,12.20
2022-10-03T19:26:48.855Z,12.20
2022-10-03T19:29:39.400Z,12.20
2022-10-03T19:32:32.237Z,12.20
2022-10-03T19:35:00.491Z,12.20
2022-10-03T19:37:45.904Z,12.20
2022-10-03T19:40:39.966Z,12.20
2022-10-03T19:43:25.765Z,12.40
2022-10-03T19:46:03.497Z,12.50
2022-10-03T19:48:30.418Z,12.60
2022-10-03T19:50:57.359Z,12.70
2022-10-03T19:53:24.404Z,12.60
2022-10-03T19:55:51.215Z,12.60
2022-10-03T19:58:24.310Z,12.60
2022-10-03T20:00:55.001Z,12.60
2022-10-03T20:03:52.098Z,12.60
2022-10-03T20:06:27.202Z,12.50
2022-10-03T20:09:18.638Z,12.50
2022-10-03T20:12:12.161Z,12.60
2022-10-03T20:14:41.688Z,12.60
2022-10-03T20:17:13.532Z,12.60
2022-10-03T20:19:57.283Z,12.60
2022-10-03T20:22:28.961Z,12.60
2022-10-03T20:24:56.011Z,12.60
2022-10-03T20:27:38.501Z,12.70
2022-10-03T20:30:17.543Z,12.70
2022-10-03T20:32:45.730Z,12.70
2022-10-03T20:35:25.617Z,12.70
2022-10-03T20:37:54.910Z,12.70
2022-10-03T20:40:36.072Z,12.70
2022-10-03T20:43:27.329Z,12.70
2022-10-03T20:46:08.410Z,12.80
2022-10-03T20:48:36.539Z,12.70
2022-10-03T20:51:03.622Z,12.70
2022-10-03T20:53:31.329Z,12.70
2022-10-03T20:56:01.867Z,12.70
2022-10-03T20:58:30.300Z,12.70
2022-10-03T21:01:26.263Z,12.80
2022-10-03T21:04:14.373Z,12.80
2022-10-03T21:07:06.554Z,12.80
2022-10-03T21:09:56.550Z,12.70
2022-10-03T21:12:29.194Z,12.80
2022-10-03T21:15:20.733Z,12.70
2022-10-03T21:17:47.544Z,12.70
2022-10-03T21:20:17.399Z,12.60
2022-10-03T21:22:44.558Z,12.60
2022-10-03T21:25:31.770Z,12.60
2022-10-03T21:27:58.973Z,12.60
2022-10-03T21:30:49.645Z,12.60
2022-10-03T21:33:21.249Z,12.60
2022-10-03T21:35:50.061Z,12.60
2022-10-03T21:38:31.299Z,12.60
2022-10-03T21:41:17.350Z,12.70
2022-10-03T21:44:11.233Z,12.60
2022-10-03T21:47:07.330Z,12.60
2022-10-03T21:49:49.605Z,12.60
2022-10-03T21:52:19.602Z,12.60
2022-10-03T21:55:45.358Z,12.50
2022-10-03T21:58:23.047Z,12.50
2022-10-03T22:01:04.670Z,12.60
2022-10-03T22:04:21.140Z,12.50
2022-10-03T22:07:10.066Z,12.50
2022-10-03T22:09:47.369Z,12.50
2022-10-03T22:12:14.627Z,12.50
2022-10-03T22:15:03.891Z,12.60
2022-10-03T22:17:33.398Z,12.50
2022-10-03T22:20:35.846Z,12.60
2022-10-03T22:23:18.378Z,12.60
2022-10-03T22:26:08.194Z,12.60
2022-10-03T22:28:53.546Z,12.60
2022-10-03T22:31:23.191Z,12.60
2022-10-03T22:34:08.643Z,12.50
2022-10-03T22:36:36.034Z,12.50
2022-10-03T22:39:06.777Z,12.50
2022-10-03T22:41:33.488Z,12.50
2022-10-03T22:44:00.460Z,12.40
2022-10-03T22:46:29.355Z,12.50
2022-10-03T22:49:05.297Z,12.40
2022-10-03T22:51:32.504Z,12.50
2022-10-03T22:54:04.835Z,12.40
2022-10-03T22:57:00.799Z,12.30
2022-10-03T22:59:29.588Z,12.30
2022-10-03T23:02:01.004Z,12.20
2022-10-03T23:04:32.634Z,12.10
2022-10-03T23:07:30.505Z,12.10
2022-10-03T23:10:01.948Z,12.00
2022-10-03T23:12:30.535Z,11.90
2022-10-03T23:14:57.470Z,11.90
2022-10-03T23:17:38.767Z,11.80
2022-10-03T23:20:42.687Z,11.80
2022-10-03T23:23:14.126Z,11.80
2022-10-03T23:26:22.045Z,11.80
2022-10-03T23:28:57.771Z,11.70
2022-10-03T23:31:51.398Z,11.70
2022-10-03T23:34:38.308Z,11.70
2022-10-03T23:37:14.185Z,11.60
2022-10-03T23:39:42.542Z,11.60
2022-10-03T23:42:45.552Z,11.60
2022-10-03T23:45:16.614Z,11.60
2022-10-03T23:47:54.191Z,11.60
2022-10-03T23:50:45.134Z,11.60
2022-10-03T23:53:44.692Z,11.60
2022-10-03T23:56:32.613Z,11.50
2022-10-03T23:59:02.581Z,11.50
